Achille, OK

8:23 AM CDT on August 18, 2019 (GMT -0500)
KR5B North Colbert EM13RV | | Change Station
Active Advisory: Heat Advisory

Elev 689 ft 33.88 °N, 96.50 °W | Updated 7 seconds ago

Clear
Clear
82 °F
Feels Like 86 °F
N
2.9
Wind Variable Wind from SSE
Gusts 6.9 mph

Today
High -- | Low -- °F
--% Chance of Precip.
Yesterday
High -- | Low -- °F
Precip. -- in
Pressure 29.90 in
Visibility 10.0 miles
Clouds Clear
Heat Index 86 °F
Dew Point 71 °F
Humidity 69%
Rainfall 0.00 in
Snow Depth Not available.
6:49 AM 8:08 PM
Waning Gibbous, 92% visible
METAR KDUA 181316Z AUTO 18008KT 10SM CLR 27/23 A2990 RMK AO2
Pressure 29.90 in
Visibility 10.0 miles
Clouds Clear
Heat Index 86 °F
Dew Point 71 °F
Humidity 69%
Rainfall 0.00 in
Snow Depth Not available.
6:49 AM 8:08 PM
Waning Gibbous, 92% visible
METAR KDUA 181316Z AUTO 18008KT 10SM CLR 27/23 A2990 RMK AO2

Get Your Daily Forecast Email!

Thanks for signing up!

Be on the lookout for a verification email in your inbox.

You'll start receiving severe weather alerts in your inbox..

×

10-Day Weather Forecast

Almanac

Astronomy

Aug. 18, 2019 Rise Set
Actual Time
Civil Twilight
Nautical Twilight
Astronomical Twilight
Moon
Length of Visible Light
Length of Day
Tomorrow will be .
, % of the Moon is Illuminated

Today's Extremes

State Highs State Lows

Community

WunderPhotos

Category 6

Welcome to Category 6. This is the collective home for Weather Underground's featured writeups by Dr. Jeff Masters (right), Bob Henson (left), Chris Burt, and other regular contributors.

Nearby

Air Quality

  Air Quality AQ Index Pollutant
Not available.

Snow Depth

Station Depth Elevation

Earthquake Activity

City Distance Mag. Time & Date
Minimum magnitude displayed is 2.5.

Coastal Water Temperatures

Place Temperature

Stations

Nearby Weather Stations

Station Location Temp. Windchill Dew Point Humidity Wind Precip. Elev Updated Type
                   

Watches & Warnings

Heat Advisory
Issued: 3:45 AM CDT Aug. 18, 2019 – National Weather Service

... Heat advisory now in effect until 9 PM CDT Monday...

* heat index values... 105 to around 110.

* Timing... Sunday afternoon and evening and again Monday afternoon
and evening.

* Impacts... dangerously high temperatures and humidity could
quickly cause heat stress or heat stroke if precautions are
not taken.

Precautionary/preparedness actions...

The combination of hot temperatures and high humidity will
combine to create a situation in which heat illnesses are
possible. Drink plenty of fluids, stay in an air-conditioned
room, stay out of the sun, and check up on relatives and
neighbors.

Take extra precautions, if you work or spend time outside. When
possible, reschedule strenuous activities to early morning or
evening. Know the signs and symptoms of heat exhaustion and heat
stroke. Wear light weight and loose fitting clothing. Anyone
overcome by heat should be moved to a cool and shaded location.
Heat stroke is an emergency, call 9 1 1.